sensor_id;sensor_type;location;lat;lon;timestamp;P1;durP1;ratioP1;P2;durP2;ratioP2
75456;SDS011;64036;48.266;14.192;2023-11-21T00:01:57;4.30;;;2.20;;
75456;SDS011;64036;48.266;14.192;2023-11-21T00:04:24;5.20;;;2.10;;
75456;SDS011;64036;48.266;14.192;2023-11-21T00:06:51;4.20;;;1.90;;
75456;SDS011;64036;48.266;14.192;2023-11-21T00:09:20;3.40;;;1.90;;
75456;SDS011;64036;48.266;14.192;2023-11-21T00:11:57;7.80;;;2.70;;
75456;SDS011;64036;48.266;14.192;2023-11-21T00:14:25;6.20;;;2.90;;
75456;SDS011;64036;48.266;14.192;2023-11-21T00:16:56;6.50;;;2.90;;
75456;SDS011;64036;48.266;14.192;2023-11-21T00:19:22;7.10;;;2.70;;
75456;SDS011;64036;48.266;14.192;2023-11-21T00:21:51;6.90;;;2.80;;
75456;SDS011;64036;48.266;14.192;2023-11-21T00:24:16;6.90;;;2.80;;
75456;SDS011;64036;48.266;14.192;2023-11-21T00:26:43;5.10;;;2.30;;
75456;SDS011;64036;48.266;14.192;2023-11-21T00:29:08;5.60;;;2.20;;
75456;SDS011;64036;48.266;14.192;2023-11-21T00:31:40;5.50;;;2.50;;
75456;SDS011;64036;48.266;14.192;2023-11-21T00:34:16;5.30;;;2.20;;
75456;SDS011;64036;48.266;14.192;2023-11-21T00:36:41;8.90;;;3.10;;
75456;SDS011;64036;48.266;14.192;2023-11-21T00:39:07;4.70;;;2.20;;
75456;SDS011;64036;48.266;14.192;2023-11-21T00:41:39;5.10;;;2.20;;
75456;SDS011;64036;48.266;14.192;2023-11-21T00:44:18;5.10;;;2.30;;
75456;SDS011;64036;48.266;14.192;2023-11-21T00:49:35;4.80;;;2.50;;
75456;SDS011;64036;48.266;14.192;2023-11-21T00:52:13;6.40;;;2.60;;
75456;SDS011;64036;48.266;14.192;2023-11-21T00:54:39;4.90;;;2.30;;
75456;SDS011;64036;48.266;14.192;2023-11-21T00:57:12;5.60;;;2.60;;
75456;SDS011;64036;48.266;14.192;2023-11-21T00:59:38;8.70;;;2.90;;
75456;SDS011;64036;48.266;14.192;2023-11-21T01:02:04;7.00;;;2.60;;
75456;SDS011;64036;48.266;14.192;2023-11-21T01:04:30;5.50;;;2.50;;
75456;SDS011;64036;48.266;14.192;2023-11-21T01:07:03;5.70;;;2.60;;
75456;SDS011;64036;48.266;14.192;2023-11-21T01:09:30;6.40;;;2.90;;
75456;SDS011;64036;48.266;14.192;2023-11-21T01:11:59;6.50;;;2.60;;
75456;SDS011;64036;48.266;14.192;2023-11-21T01:14:33;6.30;;;2.40;;
75456;SDS011;64036;48.266;14.192;2023-11-21T01:17:14;6.60;;;2.60;;
75456;SDS011;64036;48.266;14.192;2023-11-21T01:19:45;3.80;;;2.00;;
75456;SDS011;64036;48.266;14.192;2023-11-21T01:22:16;3.90;;;2.40;;
75456;SDS011;64036;48.266;14.192;2023-11-21T01:24:42;8.00;;;2.70;;
75456;SDS011;64036;48.266;14.192;2023-11-21T01:27:07;5.60;;;3.10;;
75456;SDS011;64036;48.266;14.192;2023-11-21T01:29:34;6.80;;;2.30;;
75456;SDS011;64036;48.266;14.192;2023-11-21T01:32:02;5.90;;;2.90;;
75456;SDS011;64036;48.266;14.192;2023-11-21T01:34:34;5.90;;;2.70;;
75456;SDS011;64036;48.266;14.192;2023-11-21T01:37:00;4.90;;;2.40;;
75456;SDS011;64036;48.266;14.192;2023-11-21T01:39:30;3.70;;;2.30;;
75456;SDS011;64036;48.266;14.192;2023-11-21T01:41:57;4.50;;;2.10;;
75456;SDS011;64036;48.266;14.192;2023-11-21T01:44:29;4.50;;;2.70;;
75456;SDS011;64036;48.266;14.192;2023-11-21T01:46:55;5.30;;;2.80;;
75456;SDS011;64036;48.266;14.192;2023-11-21T01:49:33;4.60;;;2.30;;
75456;SDS011;64036;48.266;14.192;2023-11-21T01:52:08;4.60;;;2.30;;
75456;SDS011;64036;48.266;14.192;2023-11-21T01:54:37;5.80;;;2.80;;
75456;SDS011;64036;48.266;14.192;2023-11-21T01:57:04;7.20;;;3.10;;
75456;SDS011;64036;48.266;14.192;2023-11-21T01:59:44;9.20;;;3.80;;
75456;SDS011;64036;48.266;14.192;2023-11-21T02:02:50;8.00;;;3.70;;
75456;SDS011;64036;48.266;14.192;2023-11-21T02:05:22;7.80;;;4.00;;
75456;SDS011;64036;48.266;14.192;2023-11-21T02:07:48;11.10;;;4.60;;
75456;SDS011;64036;48.266;14.192;2023-11-21T02:10:16;8.90;;;4.70;;
75456;SDS011;64036;48.266;14.192;2023-11-21T02:12:44;9.10;;;4.30;;
75456;SDS011;64036;48.266;14.192;2023-11-21T02:15:13;12.10;;;5.50;;
75456;SDS011;64036;48.266;14.192;2023-11-21T02:17:46;9.80;;;4.20;;
75456;SDS011;64036;48.266;14.192;2023-11-21T02:20:23;9.80;;;3.90;;
75456;SDS011;64036;48.266;14.192;2023-11-21T02:23:00;5.90;;;3.30;;
75456;SDS011;64036;48.266;14.192;2023-11-21T02:25:27;5.90;;;3.50;;
75456;SDS011;64036;48.266;14.192;2023-11-21T02:28:00;6.00;;;3.00;;
75456;SDS011;64036;48.266;14.192;2023-11-21T02:30:27;9.30;;;3.70;;
75456;SDS011;64036;48.266;14.192;2023-11-21T02:32:53;7.30;;;3.20;;
75456;SDS011;64036;48.266;14.192;2023-11-21T02:35:20;4.90;;;2.60;;
75456;SDS011;64036;48.266;14.192;2023-11-21T02:37:47;7.40;;;3.40;;
75456;SDS011;64036;48.266;14.192;2023-11-21T02:40:16;6.80;;;3.60;;
75456;SDS011;64036;48.266;14.192;2023-11-21T02:42:53;5.60;;;2.90;;
75456;SDS011;64036;48.266;14.192;2023-11-21T02:45:20;5.30;;;2.80;;
75456;SDS011;64036;48.266;14.192;2023-11-21T02:47:51;6.00;;;3.50;;
75456;SDS011;64036;48.266;14.192;2023-11-21T02:50:19;6.50;;;3.50;;
75456;SDS011;64036;48.266;14.192;2023-11-21T02:52:56;7.20;;;3.30;;
75456;SDS011;64036;48.266;14.192;2023-11-21T02:55:23;9.00;;;3.40;;
75456;SDS011;64036;48.266;14.192;2023-11-21T02:57:50;7.30;;;3.40;;
75456;SDS011;64036;48.266;14.192;2023-11-21T03:00:19;6.00;;;2.90;;
75456;SDS011;64036;48.266;14.192;2023-11-21T03:02:44;7.40;;;3.00;;
75456;SDS011;64036;48.266;14.192;2023-11-21T03:05:12;6.00;;;2.80;;
75456;SDS011;64036;48.266;14.192;2023-11-21T03:07:43;5.20;;;2.50;;
75456;SDS011;64036;48.266;14.192;2023-11-21T03:10:09;9.10;;;3.10;;
75456;SDS011;64036;48.266;14.192;2023-11-21T03:12:37;6.70;;;2.70;;
75456;SDS011;64036;48.266;14.192;2023-11-21T03:15:05;5.80;;;2.50;;
75456;SDS011;64036;48.266;14.192;2023-11-21T03:17:32;4.50;;;2.20;;
75456;SDS011;64036;48.266;14.192;2023-11-21T03:20:00;5.00;;;2.70;;
75456;SDS011;64036;48.266;14.192;2023-11-21T03:22:26;4.10;;;2.40;;
75456;SDS011;64036;48.266;14.192;2023-11-21T03:24:52;5.90;;;2.40;;
75456;SDS011;64036;48.266;14.192;2023-11-21T03:27:18;4.00;;;2.20;;
75456;SDS011;64036;48.266;14.192;2023-11-21T03:29:44;5.80;;;2.40;;
75456;SDS011;64036;48.266;14.192;2023-11-21T03:32:12;6.60;;;3.40;;
75456;SDS011;64036;48.266;14.192;2023-11-21T03:34:54;7.70;;;3.50;;
75456;SDS011;64036;48.266;14.192;2023-11-21T03:37:23;5.00;;;2.90;;
75456;SDS011;64036;48.266;14.192;2023-11-21T03:39:56;7.10;;;3.10;;
75456;SDS011;64036;48.266;14.192;2023-11-21T03:42:33;6.10;;;3.00;;
75456;SDS011;64036;48.266;14.192;2023-11-21T03:44:59;6.20;;;3.10;;
75456;SDS011;64036;48.266;14.192;2023-11-21T03:47:26;8.90;;;3.40;;
75456;SDS011;64036;48.266;14.192;2023-11-21T03:49:53;6.60;;;3.50;;
75456;SDS011;64036;48.266;14.192;2023-11-21T03:52:21;4.10;;;2.50;;
75456;SDS011;64036;48.266;14.192;2023-11-21T03:54:49;9.40;;;3.30;;
75456;SDS011;64036;48.266;14.192;2023-11-21T03:57:15;6.70;;;2.80;;
75456;SDS011;64036;48.266;14.192;2023-11-21T03:59:41;6.00;;;3.00;;
75456;SDS011;64036;48.266;14.192;2023-11-21T04:02:08;8.70;;;3.10;;
75456;SDS011;64036;48.266;14.192;2023-11-21T04:04:39;7.10;;;3.00;;
75456;SDS011;64036;48.266;14.192;2023-11-21T04:07:24;5.30;;;2.80;;
75456;SDS011;64036;48.266;14.192;2023-11-21T04:09:49;5.90;;;3.20;;
75456;SDS011;64036;48.266;14.192;2023-11-21T04:12:15;8.80;;;3.00;;
75456;SDS011;64036;48.266;14.192;2023-11-21T04:14:41;6.10;;;2.80;;
75456;SDS011;64036;48.266;14.192;2023-11-21T04:17:07;6.40;;;2.70;;
75456;SDS011;64036;48.266;14.192;2023-11-21T04:19:38;6.70;;;2.60;;
75456;SDS011;64036;48.266;14.192;2023-11-21T04:22:04;4.40;;;2.70;;
75456;SDS011;64036;48.266;14.192;2023-11-21T04:24:29;8.10;;;3.10;;
75456;SDS011;64036;48.266;14.192;2023-11-21T04:26:55;7.90;;;3.20;;
75456;SDS011;64036;48.266;14.192;2023-11-21T04:29:21;7.20;;;3.20;;
75456;SDS011;64036;48.266;14.192;2023-11-21T04:31:48;5.30;;;2.90;;
75456;SDS011;64036;48.266;14.192;2023-11-21T04:34:15;8.00;;;2.80;;
75456;SDS011;64036;48.266;14.192;2023-11-21T04:36:40;6.10;;;2.60;;
75456;SDS011;64036;48.266;14.192;2023-11-21T04:39:06;6.50;;;2.80;;
75456;SDS011;64036;48.266;14.192;2023-11-21T04:41:34;5.00;;;2.60;;
75456;SDS011;64036;48.266;14.192;2023-11-21T04:44:01;6.20;;;2.40;;
75456;SDS011;64036;48.266;14.192;2023-11-21T04:46:27;7.50;;;2.40;;
75456;SDS011;64036;48.266;14.192;2023-11-21T04:48:59;6.40;;;2.50;;
75456;SDS011;64036;48.266;14.192;2023-11-21T04:51:25;7.10;;;2.60;;
75456;SDS011;64036;48.266;14.192;2023-11-21T04:53:50;7.20;;;3.10;;
75456;SDS011;64036;48.266;14.192;2023-11-21T04:56:16;5.50;;;2.90;;
75456;SDS011;64036;48.266;14.192;2023-11-21T04:58:42;7.40;;;3.50;;
75456;SDS011;64036;48.266;14.192;2023-11-21T05:01:10;7.90;;;3.30;;
75456;SDS011;64036;48.266;14.192;2023-11-21T05:03:36;6.90;;;3.60;;
75456;SDS011;64036;48.266;14.192;2023-11-21T05:06:04;6.60;;;3.10;;
75456;SDS011;64036;48.266;14.192;2023-11-21T05:08:36;7.50;;;3.20;;
75456;SDS011;64036;48.266;14.192;2023-11-21T05:11:03;7.30;;;3.50;;
75456;SDS011;64036;48.266;14.192;2023-11-21T05:13:29;7.20;;;3.40;;
75456;SDS011;64036;48.266;14.192;2023-11-21T05:15:55;6.20;;;3.70;;
75456;SDS011;64036;48.266;14.192;2023-11-21T05:18:35;6.90;;;3.90;;
75456;SDS011;64036;48.266;14.192;2023-11-21T05:21:16;8.30;;;3.80;;
75456;SDS011;64036;48.266;14.192;2023-11-21T05:23:41;6.00;;;3.40;;
75456;SDS011;64036;48.266;14.192;2023-11-21T05:26:10;8.00;;;3.50;;
75456;SDS011;64036;48.266;14.192;2023-11-21T05:28:36;7.60;;;3.30;;
75456;SDS011;64036;48.266;14.192;2023-11-21T05:31:02;7.80;;;3.40;;
75456;SDS011;64036;48.266;14.192;2023-11-21T05:33:28;7.90;;;3.90;;
75456;SDS011;64036;48.266;14.192;2023-11-21T05:35:53;6.20;;;3.60;;
75456;SDS011;64036;48.266;14.192;2023-11-21T05:38:27;6.30;;;2.90;;
75456;SDS011;64036;48.266;14.192;2023-11-21T05:40:52;6.60;;;3.00;;
75456;SDS011;64036;48.266;14.192;2023-11-21T05:43:19;7.90;;;3.40;;
75456;SDS011;64036;48.266;14.192;2023-11-21T05:45:44;7.40;;;3.80;;
75456;SDS011;64036;48.266;14.192;2023-11-21T05:48:10;7.90;;;3.60;;
75456;SDS011;64036;48.266;14.192;2023-11-21T05:50:36;12.50;;;4.70;;
75456;SDS011;64036;48.266;14.192;2023-11-21T05:53:03;6.50;;;3.50;;
75456;SDS011;64036;48.266;14.192;2023-11-21T05:55:29;7.90;;;3.80;;
75456;SDS011;64036;48.266;14.192;2023-11-21T05:57:55;7.10;;;3.50;;
75456;SDS011;64036;48.266;14.192;2023-11-21T06:00:21;7.20;;;3.70;;
75456;SDS011;64036;48.266;14.192;2023-11-21T06:02:51;7.70;;;3.40;;
75456;SDS011;64036;48.266;14.192;2023-11-21T06:05:22;9.30;;;3.30;;
75456;SDS011;64036;48.266;14.192;2023-11-21T06:07:55;7.50;;;3.50;;
75456;SDS011;64036;48.266;14.192;2023-11-21T06:10:24;7.00;;;3.60;;
75456;SDS011;64036;48.266;14.192;2023-11-21T06:12:51;8.60;;;3.70;;
75456;SDS011;64036;48.266;14.192;2023-11-21T06:15:17;8.30;;;3.50;;
75456;SDS011;64036;48.266;14.192;2023-11-21T06:17:46;5.30;;;3.00;;
75456;SDS011;64036;48.266;14.192;2023-11-21T06:20:26;6.70;;;3.50;;
75456;SDS011;64036;48.266;14.192;2023-11-21T06:23:02;6.00;;;3.00;;
75456;SDS011;64036;48.266;14.192;2023-11-21T06:25:29;7.60;;;3.30;;
75456;SDS011;64036;48.266;14.192;2023-11-21T06:27:58;8.20;;;2.90;;
75456;SDS011;64036;48.266;14.192;2023-11-21T06:30:24;6.70;;;2.70;;
75456;SDS011;64036;48.266;14.192;2023-11-21T06:32:49;6.40;;;2.90;;
75456;SDS011;64036;48.266;14.192;2023-11-21T06:35:16;4.50;;;2.70;;
75456;SDS011;64036;48.266;14.192;2023-11-21T06:37:41;5.70;;;3.20;;
75456;SDS011;64036;48.266;14.192;2023-11-21T06:40:12;9.90;;;2.90;;
75456;SDS011;64036;48.266;14.192;2023-11-21T06:42:40;6.70;;;2.90;;
75456;SDS011;64036;48.266;14.192;2023-11-21T06:45:07;5.40;;;3.00;;
75456;SDS011;64036;48.266;14.192;2023-11-21T06:47:53;6.80;;;2.70;;
75456;SDS011;64036;48.266;14.192;2023-11-21T06:50:28;5.70;;;2.50;;
75456;SDS011;64036;48.266;14.192;2023-11-21T06:52:54;5.30;;;2.80;;
75456;SDS011;64036;48.266;14.192;2023-11-21T06:55:19;5.20;;;2.80;;
75456;SDS011;64036;48.266;14.192;2023-11-21T06:57:45;3.80;;;2.10;;
75456;SDS011;64036;48.266;14.192;2023-11-21T07:00:15;5.60;;;3.00;;
75456;SDS011;64036;48.266;14.192;2023-11-21T07:02:41;4.90;;;3.00;;
75456;SDS011;64036;48.266;14.192;2023-11-21T07:05:10;5.80;;;3.20;;
75456;SDS011;64036;48.266;14.192;2023-11-21T07:07:36;5.50;;;2.50;;
75456;SDS011;64036;48.266;14.192;2023-11-21T07:10:03;5.60;;;3.40;;
75456;SDS011;64036;48.266;14.192;2023-11-21T07:12:32;9.00;;;3.30;;
75456;SDS011;64036;48.266;14.192;2023-11-21T07:14:58;5.10;;;3.00;;
75456;SDS011;64036;48.266;14.192;2023-11-21T07:17:24;5.20;;;2.60;;
75456;SDS011;64036;48.266;14.192;2023-11-21T07:19:49;6.80;;;3.20;;
75456;SDS011;64036;48.266;14.192;2023-11-21T07:22:16;6.90;;;3.30;;
75456;SDS011;64036;48.266;14.192;2023-11-21T07:24:50;5.80;;;3.00;;
75456;SDS011;64036;48.266;14.192;2023-11-21T07:27:19;7.60;;;3.00;;
75456;SDS011;64036;48.266;14.192;2023-11-21T07:29:45;5.60;;;2.90;;
75456;SDS011;64036;48.266;14.192;2023-11-21T07:32:10;7.50;;;3.00;;
75456;SDS011;64036;48.266;14.192;2023-11-21T07:34:38;4.80;;;2.70;;
75456;SDS011;64036;48.266;14.192;2023-11-21T07:37:03;6.50;;;2.50;;
75456;SDS011;64036;48.266;14.192;2023-11-21T07:39:29;8.90;;;2.80;;
75456;SDS011;64036;48.266;14.192;2023-11-21T07:41:55;5.10;;;2.20;;
75456;SDS011;64036;48.266;14.192;2023-11-21T07:44:23;4.70;;;2.40;;
75456;SDS011;64036;48.266;14.192;2023-11-21T07:46:49;5.00;;;2.40;;
75456;SDS011;64036;48.266;14.192;2023-11-21T07:49:17;6.20;;;2.00;;
75456;SDS011;64036;48.266;14.192;2023-11-21T07:51:45;5.30;;;2.00;;
75456;SDS011;64036;48.266;14.192;2023-11-21T07:54:11;3.10;;;1.80;;
75456;SDS011;64036;48.266;14.192;2023-11-21T07:56:37;5.70;;;2.10;;
75456;SDS011;64036;48.266;14.192;2023-11-21T07:59:03;8.10;;;2.50;;
75456;SDS011;64036;48.266;14.192;2023-11-21T08:01:29;3.80;;;2.10;;
75456;SDS011;64036;48.266;14.192;2023-11-21T08:03:55;7.00;;;2.30;;
75456;SDS011;64036;48.266;14.192;2023-11-21T08:06:24;5.30;;;2.20;;
75456;SDS011;64036;48.266;14.192;2023-11-21T08:08:51;5.40;;;2.50;;
75456;SDS011;64036;48.266;14.192;2023-11-21T08:11:17;6.10;;;2.40;;
75456;SDS011;64036;48.266;14.192;2023-11-21T08:13:43;5.50;;;2.40;;
75456;SDS011;64036;48.266;14.192;2023-11-21T08:16:08;6.60;;;2.70;;
75456;SDS011;64036;48.266;14.192;2023-11-21T08:18:34;3.30;;;1.80;;
75456;SDS011;64036;48.266;14.192;2023-11-21T08:21:00;7.90;;;2.40;;
75456;SDS011;64036;48.266;14.192;2023-11-21T08:23:26;6.00;;;2.20;;
75456;SDS011;64036;48.266;14.192;2023-11-21T08:25:55;4.50;;;2.50;;
75456;SDS011;64036;48.266;14.192;2023-11-21T08:28:21;5.70;;;2.40;;
75456;SDS011;64036;48.266;14.192;2023-11-21T08:30:54;3.30;;;1.80;;
75456;SDS011;64036;48.266;14.192;2023-11-21T08:33:20;5.30;;;2.60;;
75456;SDS011;64036;48.266;14.192;2023-11-21T08:35:46;6.60;;;2.30;;
75456;SDS011;64036;48.266;14.192;2023-11-21T08:38:12;5.40;;;2.40;;
75456;SDS011;64036;48.266;14.192;2023-11-21T08:40:38;6.30;;;2.30;;
75456;SDS011;64036;48.266;14.192;2023-11-21T08:43:04;7.00;;;2.70;;
75456;SDS011;64036;48.266;14.192;2023-11-21T08:45:30;5.80;;;2.20;;
75456;SDS011;64036;48.266;14.192;2023-11-21T08:47:56;4.50;;;2.40;;
75456;SDS011;64036;48.266;14.192;2023-11-21T08:50:22;6.40;;;2.30;;
75456;SDS011;64036;48.266;14.192;2023-11-21T08:52:48;6.00;;;2.40;;
75456;SDS011;64036;48.266;14.192;2023-11-21T08:55:14;6.50;;;2.60;;
75456;SDS011;64036;48.266;14.192;2023-11-21T08:57:40;5.50;;;2.70;;
75456;SDS011;64036;48.266;14.192;2023-11-21T09:00:10;7.60;;;3.10;;
75456;SDS011;64036;48.266;14.192;2023-11-21T09:02:43;5.50;;;2.40;;
75456;SDS011;64036;48.266;14.192;2023-11-21T09:05:11;7.90;;;2.60;;
75456;SDS011;64036;48.266;14.192;2023-11-21T09:07:39;6.00;;;2.70;;
75456;SDS011;64036;48.266;14.192;2023-11-21T09:10:07;6.50;;;3.20;;
75456;SDS011;64036;48.266;14.192;2023-11-21T09:12:35;5.40;;;3.10;;
75456;SDS011;64036;48.266;14.192;2023-11-21T09:15:04;5.60;;;2.60;;
75456;SDS011;64036;48.266;14.192;2023-11-21T09:17:31;8.00;;;2.60;;
75456;SDS011;64036;48.266;14.192;2023-11-21T09:19:57;5.80;;;2.80;;
75456;SDS011;64036;48.266;14.192;2023-11-21T09:22:23;5.20;;;2.70;;
75456;SDS011;64036;48.266;14.192;2023-11-21T09:24:55;6.40;;;2.90;;
75456;SDS011;64036;48.266;14.192;2023-11-21T09:27:21;7.70;;;3.30;;
75456;SDS011;64036;48.266;14.192;2023-11-21T09:29:47;5.30;;;2.90;;
75456;SDS011;64036;48.266;14.192;2023-11-21T09:32:14;7.60;;;3.20;;
75456;SDS011;64036;48.266;14.192;2023-11-21T09:34:41;4.70;;;2.30;;
75456;SDS011;64036;48.266;14.192;2023-11-21T09:37:07;5.50;;;2.60;;
75456;SDS011;64036;48.266;14.192;2023-11-21T09:39:33;5.50;;;2.50;;
75456;SDS011;64036;48.266;14.192;2023-11-21T09:47:35;5.30;;;2.40;;
75456;SDS011;64036;48.266;14.192;2023-11-21T09:50:04;5.40;;;2.60;;
75456;SDS011;64036;48.266;14.192;2023-11-21T09:52:42;6.70;;;3.10;;
75456;SDS011;64036;48.266;14.192;2023-11-21T09:55:15;5.70;;;2.60;;
75456;SDS011;64036;48.266;14.192;2023-11-21T09:57:45;5.50;;;2.60;;
75456;SDS011;64036;48.266;14.192;2023-11-21T10:00:11;7.40;;;2.70;;
75456;SDS011;64036;48.266;14.192;2023-11-21T10:02:38;6.00;;;3.00;;
75456;SDS011;64036;48.266;14.192;2023-11-21T10:05:06;7.50;;;2.90;;
75456;SDS011;64036;48.266;14.192;2023-11-21T10:07:35;7.00;;;3.10;;
75456;SDS011;64036;48.266;14.192;2023-11-21T10:10:01;8.30;;;3.10;;
75456;SDS011;64036;48.266;14.192;2023-11-21T10:12:28;6.70;;;2.70;;
75456;SDS011;64036;48.266;14.192;2023-11-21T10:14:56;4.50;;;2.90;;
75456;SDS011;64036;48.266;14.192;2023-11-21T10:17:24;7.00;;;2.50;;
75456;SDS011;64036;48.266;14.192;2023-11-21T10:22:24;7.20;;;2.80;;
75456;SDS011;64036;48.266;14.192;2023-11-21T10:24:50;6.30;;;3.10;;
75456;SDS011;64036;48.266;14.192;2023-11-21T10:27:16;7.20;;;2.70;;
75456;SDS011;64036;48.266;14.192;2023-11-21T10:29:41;9.30;;;3.00;;
75456;SDS011;64036;48.266;14.192;2023-11-21T10:32:08;7.10;;;2.90;;
75456;SDS011;64036;48.266;14.192;2023-11-21T10:34:34;6.30;;;3.00;;
75456;SDS011;64036;48.266;14.192;2023-11-21T10:37:11;5.50;;;2.70;;
75456;SDS011;64036;48.266;14.192;2023-11-21T10:39:39;5.40;;;2.80;;
75456;SDS011;64036;48.266;14.192;2023-11-21T10:42:08;6.60;;;3.20;;
75456;SDS011;64036;48.266;14.192;2023-11-21T10:44:35;6.70;;;3.00;;
75456;SDS011;64036;48.266;14.192;2023-11-21T10:47:01;5.50;;;3.00;;
75456;SDS011;64036;48.266;14.192;2023-11-21T10:49:27;7.10;;;3.00;;
75456;SDS011;64036;48.266;14.192;2023-11-21T10:51:54;8.20;;;3.00;;
75456;SDS011;64036;48.266;14.192;2023-11-21T10:54:20;7.30;;;3.20;;
75456;SDS011;64036;48.266;14.192;2023-11-21T10:56:56;4.10;;;2.80;;
75456;SDS011;64036;48.266;14.192;2023-11-21T10:59:26;6.50;;;3.30;;
75456;SDS011;64036;48.266;14.192;2023-11-21T11:01:57;6.60;;;3.40;;
75456;SDS011;64036;48.266;14.192;2023-11-21T11:04:27;7.30;;;3.70;;
75456;SDS011;64036;48.266;14.192;2023-11-21T11:07:02;5.10;;;2.80;;
75456;SDS011;64036;48.266;14.192;2023-11-21T11:09:30;6.80;;;3.20;;
75456;SDS011;64036;48.266;14.192;2023-11-21T11:11:58;8.00;;;3.40;;
75456;SDS011;64036;48.266;14.192;2023-11-21T11:14:25;5.30;;;2.70;;
75456;SDS011;64036;48.266;14.192;2023-11-21T11:16:54;4.80;;;2.90;;
75456;SDS011;64036;48.266;14.192;2023-11-21T11:19:21;5.40;;;2.90;;
75456;SDS011;64036;48.266;14.192;2023-11-21T11:25:10;5.80;;;2.70;;
75456;SDS011;64036;48.266;14.192;2023-11-21T11:35:49;8.20;;;3.30;;
75456;SDS011;64036;48.266;14.192;2023-11-21T11:38:23;5.50;;;3.00;;
75456;SDS011;64036;48.266;14.192;2023-11-21T11:40:52;5.70;;;2.90;;
75456;SDS011;64036;48.266;14.192;2023-11-21T11:43:25;5.40;;;3.00;;
75456;SDS011;64036;48.266;14.192;2023-11-21T11:45:55;6.50;;;3.00;;
75456;SDS011;64036;48.266;14.192;2023-11-21T11:48:22;5.00;;;2.40;;
75456;SDS011;64036;48.266;14.192;2023-11-21T11:51:02;5.60;;;2.60;;
75456;SDS011;64036;48.266;14.192;2023-11-21T11:53:49;5.50;;;2.90;;
75456;SDS011;64036;48.266;14.192;2023-11-21T11:56:31;5.20;;;3.00;;
75456;SDS011;64036;48.266;14.192;2023-11-21T11:59:01;6.30;;;3.10;;
75456;SDS011;64036;48.266;14.192;2023-11-21T12:01:28;6.30;;;3.70;;
75456;SDS011;64036;48.266;14.192;2023-11-21T12:06:42;6.00;;;3.00;;
75456;SDS011;64036;48.266;14.192;2023-11-21T12:09:19;5.90;;;3.60;;
75456;SDS011;64036;48.266;14.192;2023-11-21T12:11:47;4.90;;;3.00;;
75456;SDS011;64036;48.266;14.192;2023-11-21T12:14:16;5.50;;;2.90;;
75456;SDS011;64036;48.266;14.192;2023-11-21T12:16:43;6.30;;;2.70;;
75456;SDS011;64036;48.266;14.192;2023-11-21T12:19:12;5.30;;;3.20;;
75456;SDS011;64036;48.266;14.192;2023-11-21T12:21:38;5.50;;;2.80;;
75456;SDS011;64036;48.266;14.192;2023-11-21T12:24:08;5.70;;;2.80;;
75456;SDS011;64036;48.266;14.192;2023-11-21T12:26:34;4.60;;;2.50;;
75456;SDS011;64036;48.266;14.192;2023-11-21T12:29:02;4.10;;;2.20;;
75456;SDS011;64036;48.266;14.192;2023-11-21T12:31:30;3.90;;;2.20;;
75456;SDS011;64036;48.266;14.192;2023-11-21T12:33:56;4.10;;;2.50;;
75456;SDS011;64036;48.266;14.192;2023-11-21T12:36:22;4.80;;;2.50;;
75456;SDS011;64036;48.266;14.192;2023-11-21T12:38:48;4.90;;;2.90;;
75456;SDS011;64036;48.266;14.192;2023-11-21T12:41:15;5.60;;;2.70;;
75456;SDS011;64036;48.266;14.192;2023-11-21T12:43:42;4.90;;;2.20;;
75456;SDS011;64036;48.266;14.192;2023-11-21T12:46:10;4.00;;;2.10;;
75456;SDS011;64036;48.266;14.192;2023-11-21T12:48:43;4.00;;;2.40;;
75456;SDS011;64036;48.266;14.192;2023-11-21T12:51:11;4.80;;;2.40;;
75456;SDS011;64036;48.266;14.192;2023-11-21T12:53:39;5.10;;;2.40;;
75456;SDS011;64036;48.266;14.192;2023-11-21T12:56:10;4.70;;;2.50;;
75456;SDS011;64036;48.266;14.192;2023-11-21T12:58:37;4.30;;;2.60;;
75456;SDS011;64036;48.266;14.192;2023-11-21T13:01:05;3.80;;;2.00;;
75456;SDS011;64036;48.266;14.192;2023-11-21T13:03:37;3.40;;;2.00;;
75456;SDS011;64036;48.266;14.192;2023-11-21T13:06:04;4.10;;;2.30;;
75456;SDS011;64036;48.266;14.192;2023-11-21T13:08:30;3.70;;;2.10;;
75456;SDS011;64036;48.266;14.192;2023-11-21T13:10:58;3.50;;;2.00;;
75456;SDS011;64036;48.266;14.192;2023-11-21T13:13:26;3.90;;;2.00;;
75456;SDS011;64036;48.266;14.192;2023-11-21T13:15:55;4.50;;;2.10;;
75456;SDS011;64036;48.266;14.192;2023-11-21T13:18:25;4.80;;;1.80;;
75456;SDS011;64036;48.266;14.192;2023-11-21T13:20:55;4.40;;;1.90;;
75456;SDS011;64036;48.266;14.192;2023-11-21T13:23:22;3.30;;;1.70;;
75456;SDS011;64036;48.266;14.192;2023-11-21T13:25:48;3.80;;;1.80;;
75456;SDS011;64036;48.266;14.192;2023-11-21T13:28:15;3.90;;;1.90;;
75456;SDS011;64036;48.266;14.192;2023-11-21T13:30:41;3.40;;;1.90;;
75456;SDS011;64036;48.266;14.192;2023-11-21T13:33:08;4.00;;;2.00;;
75456;SDS011;64036;48.266;14.192;2023-11-21T13:35:37;3.70;;;2.10;;
75456;SDS011;64036;48.266;14.192;2023-11-21T13:38:24;5.20;;;2.60;;
75456;SDS011;64036;48.266;14.192;2023-11-21T13:40:51;5.40;;;2.70;;
75456;SDS011;64036;48.266;14.192;2023-11-21T13:43:23;6.10;;;2.60;;
75456;SDS011;64036;48.266;14.192;2023-11-21T13:45:51;2.80;;;1.90;;
75456;SDS011;64036;48.266;14.192;2023-11-21T13:48:25;4.40;;;2.40;;
75456;SDS011;64036;48.266;14.192;2023-11-21T13:50:57;3.70;;;2.10;;
75456;SDS011;64036;48.266;14.192;2023-11-21T13:53:26;4.20;;;2.10;;
75456;SDS011;64036;48.266;14.192;2023-11-21T13:55:53;4.50;;;2.40;;
75456;SDS011;64036;48.266;14.192;2023-11-21T13:58:22;6.20;;;2.40;;
75456;SDS011;64036;48.266;14.192;2023-11-21T14:00:51;4.30;;;2.10;;
75456;SDS011;64036;48.266;14.192;2023-11-21T14:03:23;5.00;;;2.10;;
75456;SDS011;64036;48.266;14.192;2023-11-21T14:05:57;5.80;;;2.50;;
75456;SDS011;64036;48.266;14.192;2023-11-21T14:08:26;5.00;;;2.20;;
75456;SDS011;64036;48.266;14.192;2023-11-21T14:10:57;4.30;;;2.20;;
75456;SDS011;64036;48.266;14.192;2023-11-21T14:13:27;4.40;;;2.10;;
75456;SDS011;64036;48.266;14.192;2023-11-21T14:15:53;5.30;;;2.30;;
75456;SDS011;64036;48.266;14.192;2023-11-21T14:18:27;4.40;;;2.40;;
75456;SDS011;64036;48.266;14.192;2023-11-21T14:21:06;5.10;;;2.10;;
75456;SDS011;64036;48.266;14.192;2023-11-21T14:26:01;6.20;;;2.40;;
75456;SDS011;64036;48.266;14.192;2023-11-21T14:28:27;4.00;;;2.20;;
75456;SDS011;64036;48.266;14.192;2023-11-21T14:30:53;5.60;;;2.10;;
75456;SDS011;64036;48.266;14.192;2023-11-21T14:33:19;3.30;;;1.90;;
75456;SDS011;64036;48.266;14.192;2023-11-21T14:35:45;6.60;;;2.10;;
75456;SDS011;64036;48.266;14.192;2023-11-21T14:38:12;3.40;;;2.30;;
75456;SDS011;64036;48.266;14.192;2023-11-21T14:40:40;4.40;;;2.30;;
75456;SDS011;64036;48.266;14.192;2023-11-21T14:43:06;3.40;;;2.00;;
75456;SDS011;64036;48.266;14.192;2023-11-21T14:45:32;3.90;;;2.20;;
75456;SDS011;64036;48.266;14.192;2023-11-21T14:48:05;3.20;;;2.10;;
75456;SDS011;64036;48.266;14.192;2023-11-21T14:50:32;3.00;;;2.00;;
75456;SDS011;64036;48.266;14.192;2023-11-21T14:53:12;5.40;;;2.40;;
75456;SDS011;64036;48.266;14.192;2023-11-21T14:55:39;3.20;;;2.10;;
75456;SDS011;64036;48.266;14.192;2023-11-21T14:58:17;6.90;;;3.40;;
75456;SDS011;64036;48.266;14.192;2023-11-21T15:00:56;8.10;;;4.40;;
75456;SDS011;64036;48.266;14.192;2023-11-21T15:03:24;6.80;;;4.40;;
75456;SDS011;64036;48.266;14.192;2023-11-21T15:06:00;5.90;;;3.50;;
75456;SDS011;64036;48.266;14.192;2023-11-21T15:08:44;5.60;;;3.10;;
75456;SDS011;64036;48.266;14.192;2023-11-21T15:11:19;3.80;;;2.20;;